createdAt,value
2018-01-21T00:00:35.892Z,69.42
2018-01-21T00:03:02.844Z,69.08
2018-01-21T00:05:29.896Z,69.29
2018-01-21T00:07:56.887Z,69.34
2018-01-21T00:10:23.174Z,69.50
2018-01-21T00:12:50.300Z,69.35
2018-01-21T00:15:17.734Z,69.50
2018-01-21T00:17:43.955Z,69.80
2018-01-21T00:20:10.167Z,69.61
2018-01-21T00:22:40.377Z,69.89
2018-01-21T00:25:06.599Z,70.33
2018-01-21T00:27:32.852Z,69.93
2018-01-21T00:29:59.073Z,70.37
2018-01-21T00:32:25.332Z,70.60
2018-01-21T00:34:52.348Z,70.38
2018-01-21T00:37:18.605Z,69.80
2018-01-21T00:39:44.864Z,69.67
2018-01-21T00:42:11.136Z,69.56
2018-01-21T00:44:37.384Z,69.75
2018-01-21T00:47:03.660Z,69.40
2018-01-21T00:49:30.637Z,69.66
2018-01-21T00:51:56.944Z,69.70
2018-01-21T00:54:23.906Z,69.62
2018-01-21T00:56:50.163Z,70.00
2018-01-21T00:59:16.484Z,69.92
2018-01-21T01:01:42.769Z,69.96
2018-01-21T01:04:09.019Z,70.13
2018-01-21T01:06:35.981Z,69.99
2018-01-21T01:09:02.269Z,70.10
2018-01-21T01:11:28.501Z,70.19
2018-01-21T01:13:54.741Z,70.18
2018-01-21T01:16:21.747Z,70.37
2018-01-21T01:18:47.968Z,70.50
2018-01-21T01:21:14.840Z,70.37
2018-01-21T01:23:41.081Z,70.17
2018-01-21T01:26:07.343Z,69.97
2018-01-21T01:28:33.584Z,69.96
2018-01-21T01:30:59.787Z,70.09
2018-01-21T01:33:26.756Z,70.24
2018-01-21T01:35:53.000Z,69.99
2018-01-21T01:38:19.263Z,69.18
2018-01-21T01:40:45.728Z,69.42
2018-01-21T01:43:12.781Z,69.44
2018-01-21T01:45:38.992Z,69.58
2018-01-21T01:48:05.939Z,69.59
2018-01-21T01:50:32.912Z,69.98
2018-01-21T01:52:59.142Z,70.05
2018-01-21T01:55:25.368Z,70.07
2018-01-21T01:57:51.621Z,69.71
2018-01-21T02:00:17.867Z,69.72
2018-01-21T02:02:44.075Z,69.68
2018-01-21T02:05:10.333Z,69.05
2018-01-21T02:07:36.558Z,68.96
2018-01-21T02:10:02.985Z,69.19
2018-01-21T02:12:29.195Z,69.41
2018-01-21T02:14:55.398Z,69.44
2018-01-21T02:17:21.639Z,69.26
2018-01-21T02:19:47.838Z,69.13
2018-01-21T02:22:14.786Z,69.09
2018-01-21T02:24:41.719Z,69.60
2018-01-21T02:27:07.952Z,69.28
2018-01-21T02:29:34.917Z,69.22
2018-01-21T02:32:01.905Z,69.38
2018-01-21T02:34:28.117Z,69.16
2018-01-21T02:36:54.416Z,69.29
2018-01-21T02:39:21.380Z,69.62
2018-01-21T02:41:47.646Z,69.34
2018-01-21T02:44:13.856Z,68.43
2018-01-21T02:46:40.081Z,68.71
2018-01-21T02:49:07.162Z,68.90
2018-01-21T02:51:33.426Z,69.31
2018-01-21T02:54:00.413Z,69.10
2018-01-21T02:56:26.647Z,69.11
2018-01-21T02:58:52.882Z,68.99
2018-01-21T03:01:19.126Z,68.92
2018-01-21T03:03:45.371Z,68.75
2018-01-21T03:06:11.636Z,68.82
2018-01-21T03:08:37.902Z,68.68
2018-01-21T03:11:04.216Z,68.70
2018-01-21T03:13:32.303Z,68.75
2018-01-21T03:15:58.511Z,68.50
2018-01-21T03:18:24.749Z,68.38
2018-01-21T03:20:50.986Z,68.21
2018-01-21T03:23:17.227Z,68.07
2018-01-21T03:25:43.594Z,68.20
2018-01-21T03:28:10.575Z,67.98
2018-01-21T03:30:36.784Z,68.28
2018-01-21T03:33:04.180Z,68.23
2018-01-21T03:35:30.384Z,67.96
2018-01-21T03:37:56.601Z,67.71
2018-01-21T03:40:23.136Z,67.70
2018-01-21T03:42:50.356Z,67.57
2018-01-21T03:45:17.340Z,67.70
2018-01-21T03:47:43.570Z,67.57
2018-01-21T03:50:10.374Z,67.28
2018-01-21T03:52:36.625Z,67.30
2018-01-21T03:55:02.894Z,67.43
2018-01-21T03:57:29.116Z,67.82
2018-01-21T03:59:55.394Z,67.65
2018-01-21T04:02:21.600Z,67.75
2018-01-21T04:04:47.806Z,67.52
2018-01-21T04:07:14.035Z,67.51
2018-01-21T04:09:40.266Z,67.43
2018-01-21T04:12:06.510Z,66.93
2018-01-21T04:14:32.751Z,66.88
2018-01-21T04:16:58.983Z,66.69
2018-01-21T04:19:25.195Z,66.83
2018-01-21T04:21:51.567Z,66.94
2018-01-21T04:24:17.755Z,66.98
2018-01-21T04:26:43.977Z,67.09
2018-01-21T04:29:10.213Z,67.12
2018-01-21T04:31:36.443Z,66.83
2018-01-21T04:34:02.683Z,66.91
2018-01-21T04:36:28.907Z,67.11
2018-01-21T04:38:55.147Z,67.13
2018-01-21T04:41:21.396Z,67.06
2018-01-21T04:43:47.635Z,66.94
2018-01-21T04:46:13.851Z,66.80
2018-01-21T04:48:40.115Z,66.78
2018-01-21T04:51:06.401Z,67.14
2018-01-21T04:53:32.907Z,67.23
2018-01-21T04:55:59.137Z,66.88
2018-01-21T04:58:25.372Z,67.20
2018-01-21T05:00:51.650Z,67.17
2018-01-21T05:03:18.629Z,66.78
2018-01-21T05:05:44.902Z,66.50
2018-01-21T05:08:11.097Z,66.46
2018-01-21T05:10:37.336Z,66.76
2018-01-21T05:13:03.566Z,67.04
2018-01-21T05:15:29.810Z,67.20
2018-01-21T05:17:56.042Z,66.75
2018-01-21T05:20:22.236Z,66.74
2018-01-21T05:22:48.470Z,66.68
2018-01-21T05:25:14.692Z,66.79
2018-01-21T05:27:41.684Z,67.10
2018-01-21T05:30:08.688Z,67.59
2018-01-21T05:32:34.915Z,67.94
2018-01-21T05:35:01.176Z,67.71
2018-01-21T05:37:27.410Z,67.99
2018-01-21T05:39:54.384Z,67.98
2018-01-21T05:42:20.645Z,68.28
2018-01-21T05:44:46.897Z,67.88
2018-01-21T05:47:13.127Z,67.75
2018-01-21T05:49:39.337Z,68.34
2018-01-21T05:52:05.569Z,68.77
2018-01-21T05:54:31.824Z,67.42
2018-01-21T05:56:58.835Z,67.51
2018-01-21T05:59:25.081Z,66.67
2018-01-21T06:01:51.395Z,66.79
2018-01-21T06:04:17.639Z,65.65
2018-01-21T06:06:43.859Z,65.32
2018-01-21T06:09:10.096Z,66.17
2018-01-21T06:11:36.356Z,66.34
2018-01-21T06:14:02.622Z,65.92
2018-01-21T06:16:28.869Z,66.13
2018-01-21T06:18:55.125Z,66.77
2018-01-21T06:21:21.368Z,66.95
2018-01-21T06:23:47.607Z,67.49
2018-01-21T06:26:14.602Z,67.88
2018-01-21T06:28:40.844Z,68.14
2018-01-21T06:31:14.213Z,69.67
2018-01-21T06:33:40.448Z,69.18
2018-01-21T06:36:06.715Z,69.59
2018-01-21T06:38:33.042Z,69.51
2018-01-21T06:40:59.280Z,70.71
2018-01-21T06:43:26.300Z,70.99
2018-01-21T06:45:52.582Z,71.51
2018-01-21T06:48:18.953Z,71.48
2018-01-21T06:50:45.268Z,71.34
2018-01-21T06:53:11.584Z,72.20
2018-01-21T06:55:38.932Z,72.15
2018-01-21T06:58:05.286Z,71.72
2018-01-21T07:00:31.514Z,71.62
2018-01-21T07:02:57.846Z,71.24
2018-01-21T07:05:24.086Z,71.03
2018-01-21T07:07:50.412Z,70.55
2018-01-21T07:10:16.704Z,71.28
2018-01-21T07:12:43.979Z,71.00
2018-01-21T07:15:10.246Z,70.51
2018-01-21T07:17:36.519Z,70.72
2018-01-21T07:20:02.791Z,70.53
2018-01-21T07:22:29.017Z,70.53
2018-01-21T07:24:55.274Z,71.00
2018-01-21T07:27:21.499Z,70.47
2018-01-21T07:29:47.779Z,70.56
2018-01-21T07:32:14.799Z,70.28
2018-01-21T07:34:41.251Z,70.25
2018-01-21T07:37:08.724Z,69.18
2018-01-21T07:39:34.993Z,69.34
2018-01-21T07:42:01.252Z,68.70
2018-01-21T07:44:27.463Z,68.61
2018-01-21T07:46:53.732Z,68.31
2018-01-21T07:49:20.770Z,67.93
2018-01-21T07:51:47.800Z,67.93
2018-01-21T07:54:15.074Z,67.29
2018-01-21T07:56:41.339Z,67.72
2018-01-21T07:59:08.385Z,67.14
2018-01-21T08:01:34.723Z,67.17
2018-01-21T08:04:01.107Z,66.82
2018-01-21T08:06:27.417Z,66.93
2018-01-21T08:08:53.647Z,67.14
2018-01-21T08:11:19.973Z,66.73
2018-01-21T08:13:46.271Z,67.71
2018-01-21T08:16:12.599Z,67.00
2018-01-21T08:18:38.861Z,67.06
2018-01-21T08:21:05.191Z,66.74
2018-01-21T08:23:31.563Z,65.83
2018-01-21T08:25:58.524Z,65.65
2018-01-21T08:28:25.572Z,65.09
2018-01-21T08:30:52.546Z,63.57
2018-01-21T08:33:18.827Z,62.85
2018-01-21T08:35:51.203Z,62.75
2018-01-21T08:38:24.434Z,62.14
2018-01-21T08:40:56.871Z,62.82
2018-01-21T08:43:23.943Z,63.51
2018-01-21T08:45:50.171Z,63.88
2018-01-21T08:48:16.500Z,63.46
2018-01-21T08:50:42.776Z,64.47
2018-01-21T08:53:09.039Z,63.93
2018-01-21T08:55:36.053Z,64.15
2018-01-21T08:58:02.284Z,62.91
2018-01-21T09:00:29.251Z,63.27
2018-01-21T09:02:55.515Z,63.17
2018-01-21T09:05:21.788Z,65.01
2018-01-21T09:07:48.042Z,65.23
2018-01-21T09:10:14.266Z,65.47
2018-01-21T09:12:40.566Z,64.20
2018-01-21T09:15:06.814Z,63.78
2018-01-21T09:17:33.226Z,63.72
2018-01-21T09:19:59.520Z,62.38
2018-01-21T09:22:26.124Z,61.49
2018-01-21T09:24:52.433Z,61.22
2018-01-21T09:27:18.699Z,62.10
2018-01-21T09:29:45.739Z,62.32
2018-01-21T09:32:12.629Z,62.54
2018-01-21T09:34:38.959Z,62.74
2018-01-21T09:37:06.196Z,62.44
2018-01-21T09:39:32.423Z,61.97
2018-01-21T09:41:58.713Z,62.49
2018-01-21T09:44:25.006Z,61.75
2018-01-21T09:46:51.265Z,61.70
2018-01-21T09:49:17.499Z,61.62
2018-01-21T09:51:43.758Z,63.21
2018-01-21T09:54:10.046Z,63.33
2018-01-21T09:56:36.348Z,62.65
2018-01-21T09:59:02.582Z,64.84
2018-01-21T10:01:28.812Z,64.83
2018-01-21T10:03:55.079Z,64.23
2018-01-21T10:06:21.404Z,64.64
2018-01-21T10:08:47.663Z,64.25
2018-01-21T10:11:14.621Z,63.90
2018-01-21T10:13:41.107Z,63.95
2018-01-21T10:16:07.390Z,63.05
2018-01-21T10:18:34.153Z,62.94
2018-01-21T10:21:00.431Z,63.48
2018-01-21T10:23:26.731Z,63.08
2018-01-21T10:25:53.279Z,63.81
2018-01-21T10:28:19.515Z,63.85
2018-01-21T10:30:45.771Z,62.22
2018-01-21T10:33:12.758Z,63.67
2018-01-21T10:35:39.081Z,63.75
2018-01-21T10:38:05.311Z,63.69
2018-01-21T10:40:31.660Z,62.91
2018-01-21T10:42:57.942Z,62.99
2018-01-21T10:45:24.952Z,62.29
2018-01-21T10:47:51.203Z,61.53
2018-01-21T10:50:17.564Z,60.90
2018-01-21T10:52:43.972Z,60.42
2018-01-21T10:55:11.108Z,60.95
2018-01-21T10:57:37.390Z,62.94
2018-01-21T11:00:03.854Z,62.72
2018-01-21T11:02:30.145Z,63.15
2018-01-21T11:04:56.392Z,63.73
2018-01-21T11:07:29.701Z,64.06
2018-01-21T11:09:55.985Z,63.39
2018-01-21T11:12:22.984Z,63.73
2018-01-21T11:14:49.263Z,62.63
2018-01-21T11:17:16.316Z,62.33
2018-01-21T11:19:42.605Z,62.23
2018-01-21T11:22:08.947Z,61.83
2018-01-21T11:24:35.436Z,62.31
2018-01-21T11:27:01.704Z,63.64
2018-01-21T11:29:27.935Z,63.74
2018-01-21T11:31:54.221Z,64.55
2018-01-21T11:34:20.494Z,64.70
2018-01-21T11:36:47.636Z,66.83
2018-01-21T11:39:13.898Z,67.49
2018-01-21T11:41:40.892Z,67.70
2018-01-21T11:44:07.152Z,66.69
2018-01-21T11:46:33.466Z,65.78
2018-01-21T11:48:59.766Z,67.50
2018-01-21T11:51:26.036Z,67.03
2018-01-21T11:53:52.409Z,67.69
2018-01-21T11:56:18.713Z,67.88
2018-01-21T11:58:44.985Z,67.02
2018-01-21T12:01:11.237Z,67.28
2018-01-21T12:03:37.515Z,67.42
2018-01-21T12:06:03.777Z,67.32
2018-01-21T12:08:30.069Z,67.95
2018-01-21T12:10:57.101Z,66.89
2018-01-21T12:13:23.371Z,66.77
2018-01-21T12:15:49.655Z,66.41
2018-01-21T12:18:15.939Z,65.94
2018-01-21T12:20:43.164Z,65.97
2018-01-21T12:23:10.168Z,65.94
2018-01-21T12:25:36.430Z,67.04
2018-01-21T12:28:03.708Z,67.19
2018-01-21T12:30:30.726Z,66.57
2018-01-21T12:32:56.974Z,67.24
2018-01-21T12:35:24.028Z,68.57
2018-01-21T12:37:51.067Z,68.21
2018-01-21T12:40:18.127Z,69.15
2018-01-21T12:42:45.191Z,69.00
2018-01-21T12:45:11.467Z,69.07
2018-01-21T12:47:37.743Z,68.74
2018-01-21T12:50:04.061Z,68.25
2018-01-21T12:52:31.100Z,68.32
2018-01-21T12:54:58.159Z,67.85
2018-01-21T12:57:25.191Z,67.72
2018-01-21T12:59:51.461Z,67.44
2018-01-21T13:02:18.315Z,66.99
2018-01-21T13:04:44.609Z,69.77
2018-01-21T13:07:11.612Z,68.76
2018-01-21T13:09:37.912Z,70.24
2018-01-21T13:12:04.198Z,70.29
2018-01-21T13:14:30.435Z,69.36
2018-01-21T13:16:56.744Z,68.38
2018-01-21T13:19:23.060Z,68.86
2018-01-21T13:21:49.332Z,69.63
2018-01-21T13:24:16.357Z,68.28
2018-01-21T13:26:42.640Z,67.66
2018-01-21T13:29:08.944Z,67.13
2018-01-21T13:31:35.927Z,68.31
2018-01-21T13:34:02.178Z,68.42
2018-01-21T13:36:28.664Z,67.02
2018-01-21T13:38:55.681Z,66.38
2018-01-21T13:41:29.244Z,65.80
2018-01-21T13:43:55.539Z,65.89
2018-01-21T13:46:22.562Z,65.24
2018-01-21T13:48:48.904Z,65.43
2018-01-21T13:51:15.925Z,66.00
2018-01-21T13:53:43.188Z,66.19
2018-01-21T13:56:09.517Z,65.50
2018-01-21T13:58:35.780Z,64.53
2018-01-21T14:01:02.813Z,62.70
2018-01-21T14:03:29.093Z,62.85
2018-01-21T14:05:55.433Z,62.49
2018-01-21T14:08:21.687Z,61.41
2018-01-21T14:10:48.009Z,61.04
2018-01-21T14:13:14.297Z,61.27
2018-01-21T14:15:40.631Z,62.24
2018-01-21T14:18:06.899Z,62.66
2018-01-21T14:20:33.143Z,62.65
2018-01-21T14:22:59.467Z,65.60
2018-01-21T14:25:25.725Z,64.60
2018-01-21T14:27:52.804Z,64.19
2018-01-21T14:30:19.072Z,63.61
2018-01-21T14:32:45.372Z,63.27
2018-01-21T14:35:11.696Z,62.90
2018-01-21T14:37:38.032Z,62.79
2018-01-21T14:40:04.505Z,62.72
2018-01-21T14:42:31.744Z,62.36
2018-01-21T14:44:58.036Z,61.96
2018-01-21T14:47:24.630Z,62.38
2018-01-21T14:49:51.042Z,62.59
2018-01-21T14:52:17.275Z,63.10
2018-01-21T14:54:43.622Z,63.16
2018-01-21T14:57:09.874Z,63.49
2018-01-21T14:59:36.882Z,63.53
2018-01-21T15:02:03.184Z,63.71
2018-01-21T15:04:29.436Z,63.58
2018-01-21T15:06:55.806Z,63.90
2018-01-21T15:09:22.843Z,64.72
2018-01-21T15:11:50.023Z,65.06
2018-01-21T15:14:17.027Z,66.08
2018-01-21T15:16:43.343Z,66.16
2018-01-21T15:19:09.681Z,66.42
2018-01-21T15:21:35.949Z,66.60
2018-01-21T15:24:02.997Z,66.77
2018-01-21T15:26:30.036Z,66.51
2018-01-21T15:28:56.330Z,66.45
2018-01-21T15:31:22.590Z,67.37
2018-01-21T15:33:48.852Z,68.10
2018-01-21T15:36:15.133Z,68.15
2018-01-21T15:38:41.576Z,68.92
2018-01-21T15:41:08.876Z,68.55
2018-01-21T15:43:36.050Z,69.15
2018-01-21T15:46:02.496Z,69.50
2018-01-21T15:48:28.829Z,69.63
2018-01-21T15:50:55.159Z,68.58
2018-01-21T15:53:21.514Z,68.07
2018-01-21T15:55:48.124Z,68.84
2018-01-21T15:58:14.527Z,68.54
2018-01-21T16:00:40.777Z,68.37
2018-01-21T16:03:07.043Z,68.95
2018-01-21T16:05:33.349Z,69.10
2018-01-21T16:07:59.622Z,68.68
2018-01-21T16:10:26.641Z,68.30
2018-01-21T16:12:59.240Z,68.06
2018-01-21T16:15:25.546Z,68.61
2018-01-21T16:17:52.721Z,69.04
2018-01-21T16:20:19.724Z,68.93
2018-01-21T16:22:46.192Z,69.07
2018-01-21T16:25:12.505Z,69.33
2018-01-21T16:27:39.609Z,69.23
2018-01-21T16:30:05.887Z,69.43
2018-01-21T16:32:32.163Z,69.36
2018-01-21T16:34:59.201Z,69.57
2018-01-21T16:37:45.076Z,69.85
2018-01-21T16:40:11.364Z,70.40
2018-01-21T16:42:37.637Z,69.34
2018-01-21T16:45:05.268Z,69.05
2018-01-21T16:47:31.568Z,69.28
2018-01-21T16:49:57.845Z,69.60
2018-01-21T16:52:24.134Z,69.12
2018-01-21T16:54:50.460Z,68.74
2018-01-21T16:57:17.401Z,68.84
2018-01-21T16:59:43.675Z,68.59
2018-01-21T17:02:09.950Z,68.40
2018-01-21T17:04:36.987Z,68.37
2018-01-21T17:07:04.080Z,68.42
2018-01-21T17:09:30.457Z,68.27
2018-01-21T17:11:56.766Z,68.68
2018-01-21T17:14:23.004Z,68.72
2018-01-21T17:17:04.526Z,69.12
2018-01-21T17:19:31.604Z,68.97
2018-01-21T17:21:57.912Z,68.45
2018-01-21T17:24:24.256Z,68.54
2018-01-21T17:26:50.891Z,68.66
2018-01-21T17:29:17.296Z,68.49
2018-01-21T17:31:44.377Z,67.87
2018-01-21T17:34:10.680Z,67.86
2018-01-21T17:36:37.747Z,67.50
2018-01-21T17:39:04.097Z,67.43
2018-01-21T17:41:30.449Z,67.74
2018-01-21T17:43:57.079Z,67.13
2018-01-21T17:46:23.486Z,67.48
2018-01-21T17:48:49.749Z,67.49
2018-01-21T17:51:16.052Z,67.57
2018-01-21T17:53:42.347Z,67.29
2018-01-21T17:56:09.391Z,67.17
2018-01-21T17:58:36.470Z,67.01
2018-01-21T18:01:02.756Z,66.61
2018-01-21T18:03:30.040Z,66.36
2018-01-21T18:05:57.106Z,66.62
2018-01-21T18:08:23.398Z,66.74
2018-01-21T18:10:50.495Z,66.95
2018-01-21T18:13:16.801Z,67.17
2018-01-21T18:15:43.826Z,67.44
2018-01-21T18:18:10.886Z,67.94
2018-01-21T18:20:37.893Z,68.12
2018-01-21T18:23:04.423Z,68.19
2018-01-21T18:25:30.753Z,68.19
2018-01-21T18:27:57.140Z,68.09
2018-01-21T18:30:23.442Z,69.74
2018-01-21T18:32:50.842Z,70.04
2018-01-21T18:35:17.212Z,70.97
2018-01-21T18:37:44.095Z,71.34
2018-01-21T18:40:11.138Z,71.92
2018-01-21T18:42:38.159Z,71.99
2018-01-21T18:45:04.552Z,71.10
2018-01-21T18:47:30.843Z,70.26
2018-01-21T18:49:58.684Z,70.31
2018-01-21T18:52:25.016Z,70.20
2018-01-21T18:54:51.348Z,70.22
2018-01-21T18:57:17.636Z,70.24
2018-01-21T18:59:43.907Z,70.62
2018-01-21T19:02:10.359Z,70.75
2018-01-21T19:04:37.446Z,70.21
2018-01-21T19:07:03.778Z,70.43
2018-01-21T19:09:30.078Z,70.19
2018-01-21T19:11:56.569Z,69.38
2018-01-21T19:14:23.004Z,69.21
2018-01-21T19:16:49.306Z,69.37
2018-01-21T19:19:16.337Z,69.39
2018-01-21T19:21:42.768Z,69.53
2018-01-21T19:24:09.788Z,69.45
2018-01-21T19:26:36.172Z,69.44
2018-01-21T19:29:02.531Z,69.64
2018-01-21T19:31:28.981Z,69.79
2018-01-21T19:33:56.100Z,69.70
2018-01-21T19:36:23.000Z,69.71
2018-01-21T19:38:50.865Z,69.98
2018-01-21T19:41:17.227Z,69.84
2018-01-21T19:43:45.437Z,69.59
2018-01-21T19:46:11.727Z,69.09
2018-01-21T19:48:38.103Z,68.75
2018-01-21T19:51:04.430Z,68.98
2018-01-21T19:53:32.072Z,68.73
2018-01-21T19:55:59.193Z,69.04
2018-01-21T19:58:27.440Z,69.59
2018-01-21T20:00:53.750Z,69.95
2018-01-21T20:03:20.076Z,70.16
2018-01-21T20:05:46.760Z,70.62
2018-01-21T20:08:13.314Z,71.08
2018-01-21T20:10:40.137Z,70.62
2018-01-21T20:13:09.317Z,70.83
2018-01-21T20:15:35.677Z,71.10
2018-01-21T20:18:02.725Z,71.44
2018-01-21T20:20:30.114Z,71.26
2018-01-21T20:22:56.454Z,71.41
2018-01-21T20:25:22.796Z,71.94
2018-01-21T20:27:50.006Z,72.32
2018-01-21T20:30:16.365Z,72.64
2018-01-21T20:32:42.894Z,72.95
2018-01-21T20:35:09.246Z,73.26
2018-01-21T20:37:35.556Z,72.35
2018-01-21T20:40:01.845Z,72.50
2018-01-21T20:42:28.986Z,72.48
2018-01-21T20:44:56.297Z,72.67
2018-01-21T20:47:22.725Z,73.98
2018-01-21T20:49:50.249Z,74.64
2018-01-21T20:52:23.494Z,74.04
2018-01-21T20:54:49.809Z,74.30
2018-01-21T20:57:16.234Z,74.05
2018-01-21T20:59:43.387Z,74.39
2018-01-21T21:02:09.697Z,74.56
2018-01-21T21:04:36.740Z,74.94
2018-01-21T21:07:04.765Z,75.02
2018-01-21T21:09:31.091Z,74.79
2018-01-21T21:11:57.380Z,75.18
2018-01-21T21:14:23.677Z,75.34
2018-01-21T21:16:50.805Z,75.44
2018-01-21T21:19:17.069Z,75.82
2018-01-21T21:21:44.099Z,75.78
2018-01-21T21:24:10.377Z,75.84
2018-01-21T21:26:36.660Z,76.08
2018-01-21T21:29:02.955Z,76.05
2018-01-21T21:31:29.252Z,76.15
2018-01-21T21:33:56.299Z,76.10
2018-01-21T21:36:23.272Z,75.75
2018-01-21T21:38:49.527Z,76.36
2018-01-21T21:41:15.820Z,76.25
2018-01-21T21:43:42.112Z,76.31
2018-01-21T21:46:08.482Z,76.27
2018-01-21T21:48:34.798Z,76.29
2018-01-21T21:51:02.040Z,76.53
2018-01-21T21:53:29.134Z,76.64
2018-01-21T21:55:55.407Z,76.50
2018-01-21T21:58:21.670Z,76.72
2018-01-21T22:00:48.019Z,76.85
2018-01-21T22:03:14.285Z,77.09
2018-01-21T22:05:40.737Z,77.13
2018-01-21T22:08:07.769Z,76.65
2018-01-21T22:10:34.065Z,76.51
2018-01-21T22:13:00.344Z,76.39
2018-01-21T22:15:28.099Z,76.42
2018-01-21T22:17:54.381Z,76.11
2018-01-21T22:20:20.674Z,76.17
2018-01-21T22:22:47.008Z,76.16
2018-01-21T22:25:13.592Z,76.08
2018-01-21T22:27:39.888Z,76.12
2018-01-21T22:30:06.896Z,76.14
2018-01-21T22:32:33.199Z,76.24
2018-01-21T22:35:00.341Z,76.21
2018-01-21T22:37:26.637Z,76.20
2018-01-21T22:39:53.596Z,76.41
2018-01-21T22:42:20.625Z,76.41
2018-01-21T22:44:46.894Z,76.51
2018-01-21T22:47:13.166Z,76.47
2018-01-21T22:49:39.423Z,75.92
2018-01-21T22:52:06.468Z,75.98
2018-01-21T22:54:33.486Z,75.89
2018-01-21T22:56:59.741Z,75.97
2018-01-21T22:59:26.790Z,75.91
2018-01-21T23:01:53.083Z,75.58
2018-01-21T23:04:19.380Z,75.60
2018-01-21T23:06:45.652Z,75.84
2018-01-21T23:09:11.936Z,75.67
2018-01-21T23:11:38.195Z,75.67
2018-01-21T23:14:04.411Z,75.51
2018-01-21T23:16:30.687Z,75.29
2018-01-21T23:18:56.917Z,75.21
2018-01-21T23:21:23.139Z,75.27
2018-01-21T23:23:49.419Z,74.92
2018-01-21T23:26:15.699Z,75.03
2018-01-21T23:28:41.974Z,74.94
2018-01-21T23:31:08.216Z,74.83
2018-01-21T23:33:34.491Z,74.29
2018-01-21T23:36:00.737Z,75.04
2018-01-21T23:38:27.772Z,75.37
2018-01-21T23:40:54.000Z,75.30
2018-01-21T23:43:27.419Z,75.35
2018-01-21T23:45:54.391Z,75.72
2018-01-21T23:48:20.675Z,75.46
2018-01-21T23:50:46.915Z,75.41
2018-01-21T23:53:13.926Z,75.09
2018-01-21T23:55:40.172Z,75.32
2018-01-21T23:58:06.407Z,75.37
